Air Navigation Services of Czech Republic
Airport: LKKB Updated:  28.10.2020 04:27:25  UTC
 METAR LKKB 28.10. 04:30 ...
METAR LKKB 280430Z 18008KT CAVOK 03/02 Q1013 NOSIG RMK BLU BLU=
 TAF LKKB 27.10. 23:00 ...
TAF LKKB 272300Z 2800/2900 18004KT CAVOK      TEMPO 2800/2807 2000 BR BKN004      BECMG 2807/2809 22010KT 9999 BKN033      TEMPO 2808/2813 23015G25KT 6000 RA BKN014 OVC028      BECMG 2812/2814 CAVOK      TEMPO 2813/2819 23015G25KT SCT018 BKN035=